Time;durP1;ratioP1;P1;durP2;ratioP2;P2;SDS_P1;SDS_P2;PMS_P1;PMS_P2;Temp;Humidity;BMP_temperature;BMP_pressure;BME280_temperature;BME280_humidity;BME280_pressure;Samples;Min_cycle;Max_cycle;Signal;HPM_P1;HPM_P2
2021/07/27 00:01:10;;;;;;;6.60;3.50;;;;;;;;;;5085696;28;20219;-65
2021/07/27 00:03:38;;;;;;;6.77;4.10;;;;;;;;;;5098597;28;20685;-63
2021/07/27 00:06:06;;;;;;;6.93;3.97;;;;;;;;;;5092019;28;20223;-65
2021/07/27 00:08:35;;;;;;;5.37;3.93;;;;;;;;;;5081702;28;20205;-63
2021/07/27 00:11:05;;;;;;;5.97;3.70;;;;;;;;;;5082832;28;20288;-63
2021/07/27 00:13:33;;;;;;;6.87;4.40;;;;;;;;;;5097691;28;20199;-63
2021/07/27 00:16:02;;;;;;;4.40;4.00;;;;;;;;;;5086808;28;20208;-63
2021/07/27 00:18:30;;;;;;;4.30;3.60;;;;;;;;;;5095078;28;20217;-63
2021/07/27 00:20:58;;;;;;;6.53;3.87;;;;;;;;;;5097581;28;20210;-63
2021/07/27 00:23:26;;;;;;;3.67;3.37;;;;;;;;;;5099363;28;20563;-63
2021/07/27 00:25:54;;;;;;;5.80;3.83;;;;;;;;;;5088810;28;20224;-64
2021/07/27 00:28:24;;;;;;;5.33;3.47;;;;;;;;;;5095161;28;20207;-63
2021/07/27 00:30:52;;;;;;;4.27;3.57;;;;;;;;;;5084766;28;20204;-63
2021/07/27 00:33:20;;;;;;;4.17;3.60;;;;;;;;;;5097240;28;20766;-63
2021/07/27 00:35:48;;;;;;;4.20;3.80;;;;;;;;;;5080247;28;20287;-63
2021/07/27 00:38:20;;;;;;;4.60;3.67;;;;;;;;;;5092962;28;20577;-63
2021/07/27 00:40:48;;;;;;;4.43;4.03;;;;;;;;;;5097463;28;20234;-63
2021/07/27 00:43:17;;;;;;;5.93;3.87;;;;;;;;;;5098751;28;20223;-63
2021/07/27 00:45:47;;;;;;;5.37;3.27;;;;;;;;;;5091342;28;20201;-63
2021/07/27 00:48:15;;;;;;;4.47;3.87;;;;;;;;;;5092103;28;20669;-64
2021/07/27 00:50:43;;;;;;;3.83;3.53;;;;;;;;;;5092373;28;20200;-63
2021/07/27 00:53:11;;;;;;;7.33;3.93;;;;;;;;;;5091253;28;20241;-64
2021/07/27 00:55:40;;;;;;;4.37;3.97;;;;;;;;;;5094472;28;20219;-63
2021/07/27 00:58:08;;;;;;;4.00;3.60;;;;;;;;;;5097031;28;20200;-63
2021/07/27 01:00:36;;;;;;;4.17;3.50;;;;;;;;;;5097674;28;20240;-65
2021/07/27 01:03:05;;;;;;;6.00;3.97;;;;;;;;;;5098461;28;20259;-63
2021/07/27 01:05:33;;;;;;;5.17;4.00;;;;;;;;;;5094863;28;20228;-66
2021/07/27 01:08:02;;;;;;;5.17;4.27;;;;;;;;;;5089315;28;20229;-63
2021/07/27 01:10:30;;;;;;;5.03;4.30;;;;;;;;;;5077918;28;20203;-64
2021/07/27 01:12:57;;;;;;;5.80;4.40;;;;;;;;;;5095854;28;20390;-63
2021/07/27 01:15:26;;;;;;;7.47;4.20;;;;;;;;;;5097317;28;20218;-63
2021/07/27 01:18:01;;;;;;;6.13;4.23;;;;;;;;;;5097456;28;20279;-65
2021/07/27 01:20:40;;;;;;;5.60;4.10;;;;;;;;;;5098376;28;20269;-64
2021/07/27 01:40:01;;;;;;;7.17;4.50;;;;;;;;;;5095618;28;20223;-64
2021/07/27 01:42:29;;;;;;;9.90;4.30;;;;;;;;;;5082483;28;20330;-65
2021/07/27 01:44:57;;;;;;;5.30;4.27;;;;;;;;;;5096364;28;20211;-65
2021/07/27 01:47:24;;;;;;;4.90;3.70;;;;;;;;;;5094988;28;20235;-65
2021/07/27 01:49:53;;;;;;;4.43;3.90;;;;;;;;;;5096113;28;20616;-65
2021/07/27 01:52:24;;;;;;;5.60;3.70;;;;;;;;;;5090663;28;20598;-65
2021/07/27 01:54:55;;;;;;;3.77;3.43;;;;;;;;;;5098032;28;20268;-65
2021/07/27 01:57:28;;;;;;;4.57;3.63;;;;;;;;;;5083658;28;20197;-65
2021/07/27 02:00:18;;;;;;;5.23;3.63;;;;;;;;;;5080204;28;20269;-65
2021/07/27 02:02:46;;;;;;;5.13;3.93;;;;;;;;;;5090351;28;20308;-65
2021/07/27 02:05:15;;;;;;;4.43;3.57;;;;;;;;;;5095899;28;20645;-65
2021/07/27 02:08:01;;;;;;;4.07;3.43;;;;;;;;;;5096151;28;20221;-65
2021/07/27 02:10:29;;;;;;;4.00;3.50;;;;;;;;;;5100640;28;20209;-65
2021/07/27 02:13:02;;;;;;;4.83;3.90;;;;;;;;;;5089117;28;20233;-65
2021/07/27 02:15:39;;;;;;;4.47;3.50;;;;;;;;;;5082595;28;20286;-65
2021/07/27 02:18:07;;;;;;;8.60;3.40;;;;;;;;;;5085843;28;20198;-65
2021/07/27 02:20:35;;;;;;;3.73;3.30;;;;;;;;;;5098205;28;20285;-65
2021/07/27 02:23:04;;;;;;;4.40;3.80;;;;;;;;;;5101422;28;20229;-65
2021/07/27 02:25:32;;;;;;;5.50;3.60;;;;;;;;;;5091067;28;20245;-65
2021/07/27 02:28:01;;;;;;;4.33;3.20;;;;;;;;;;5101586;28;20226;-65
2021/07/27 02:30:33;;;;;;;4.33;3.70;;;;;;;;;;5091752;28;20209;-64
2021/07/27 02:33:01;;;;;;;4.67;3.60;;;;;;;;;;5095012;28;20316;-65
2021/07/27 02:35:29;;;;;;;4.37;3.97;;;;;;;;;;5085656;28;20198;-65
2021/07/27 02:37:57;;;;;;;6.23;3.60;;;;;;;;;;5101255;28;20245;-65
2021/07/27 02:40:25;;;;;;;4.40;3.50;;;;;;;;;;5100058;28;20211;-65
2021/07/27 02:42:53;;;;;;;6.10;3.90;;;;;;;;;;5101288;28;20729;-65
2021/07/27 02:45:24;;;;;;;4.40;3.33;;;;;;;;;;5087712;28;20216;-65
2021/07/27 02:47:52;;;;;;;7.60;3.57;;;;;;;;;;5091530;28;20226;-65
2021/07/27 02:50:21;;;;;;;4.97;3.50;;;;;;;;;;5096715;28;20198;-65
2021/07/27 02:52:48;;;;;;;6.17;3.77;;;;;;;;;;5101178;28;20237;-65
2021/07/27 02:55:16;;;;;;;5.00;3.67;;;;;;;;;;5099924;28;20206;-65
2021/07/27 02:57:44;;;;;;;5.10;3.73;;;;;;;;;;5100881;28;20289;-65
2021/07/27 03:00:13;;;;;;;4.40;3.80;;;;;;;;;;5096579;28;20205;-65
2021/07/27 03:02:44;;;;;;;8.17;3.90;;;;;;;;;;5100901;28;20316;-65
2021/07/27 03:05:13;;;;;;;4.90;3.70;;;;;;;;;;5099308;28;20233;-65
2021/07/27 03:07:49;;;;;;;4.27;3.47;;;;;;;;;;5100015;28;20225;-65
2021/07/27 03:10:18;;;;;;;3.40;3.10;;;;;;;;;;5100837;28;20205;-65
2021/07/27 03:12:46;;;;;;;8.57;4.60;;;;;;;;;;5099422;28;20222;-65
2021/07/27 03:15:15;;;;;;;6.63;4.70;;;;;;;;;;5098028;28;20740;-65
2021/07/27 03:17:45;;;;;;;7.03;4.93;;;;;;;;;;5092762;28;20274;-65
2021/07/27 03:20:14;;;;;;;5.87;4.20;;;;;;;;;;5086483;28;20206;-65
2021/07/27 03:22:42;;;;;;;9.03;4.00;;;;;;;;;;5098788;28;20233;-65
2021/07/27 03:25:13;;;;;;;5.50;3.77;;;;;;;;;;5098290;28;20208;-65
2021/07/27 03:27:42;;;;;;;4.40;4.00;;;;;;;;;;5100588;28;20222;-65
2021/07/27 03:30:10;;;;;;;4.10;3.70;;;;;;;;;;5097684;28;20200;-65
2021/07/27 03:32:38;;;;;;;6.47;4.20;;;;;;;;;;5099267;28;20628;-65
2021/07/27 03:35:09;;;;;;;6.03;3.97;;;;;;;;;;5098047;28;20609;-65
2021/07/27 03:37:36;;;;;;;4.63;3.60;;;;;;;;;;5087721;28;20222;-65
2021/07/27 03:40:05;;;;;;;5.70;4.13;;;;;;;;;;5093919;28;20209;-65
2021/07/27 03:42:33;;;;;;;5.23;3.97;;;;;;;;;;5092739;28;20244;-65
2021/07/27 03:45:01;;;;;;;4.93;4.37;;;;;;;;;;5093607;28;20202;-65
2021/07/27 03:47:29;;;;;;;5.67;4.20;;;;;;;;;;5093972;28;20206;-65
2021/07/27 03:49:58;;;;;;;5.10;3.87;;;;;;;;;;5100015;28;20209;-65
2021/07/27 03:52:27;;;;;;;4.87;3.30;;;;;;;;;;5099242;28;20233;-65
2021/07/27 03:54:55;;;;;;;5.60;4.10;;;;;;;;;;5087385;28;20205;-63
2021/07/27 03:57:23;;;;;;;4.70;3.97;;;;;;;;;;5095812;28;20197;-62
2021/07/27 03:59:51;;;;;;;5.73;4.00;;;;;;;;;;5096623;28;20228;-63
2021/07/27 04:02:19;;;;;;;7.07;3.53;;;;;;;;;;5098552;28;20221;-61
2021/07/27 04:04:47;;;;;;;4.27;3.87;;;;;;;;;;5092620;28;20236;-63
2021/07/27 04:07:16;;;;;;;5.53;3.87;;;;;;;;;;5088856;28;20211;-62
2021/07/27 04:09:45;;;;;;;5.07;4.10;;;;;;;;;;5098494;28;20225;-62
2021/07/27 04:12:13;;;;;;;5.00;4.30;;;;;;;;;;5099292;28;20222;-63
2021/07/27 04:14:41;;;;;;;4.80;3.97;;;;;;;;;;5085927;28;20220;-63
2021/07/27 04:17:09;;;;;;;6.17;3.97;;;;;;;;;;5086159;28;20661;-63
2021/07/27 04:19:37;;;;;;;4.60;3.80;;;;;;;;;;5099222;28;20202;-63
2021/07/27 04:22:05;;;;;;;8.13;3.70;;;;;;;;;;5090235;28;20225;-62
2021/07/27 04:24:33;;;;;;;4.67;4.17;;;;;;;;;;5086185;28;20199;-62
2021/07/27 04:27:02;;;;;;;6.80;4.50;;;;;;;;;;5085838;28;20201;-63
2021/07/27 04:29:30;;;;;;;7.23;4.60;;;;;;;;;;5085330;28;20309;-63
2021/07/27 04:31:58;;;;;;;5.37;4.27;;;;;;;;;;5094378;28;20232;-63
2021/07/27 04:34:26;;;;;;;4.80;4.30;;;;;;;;;;5085916;28;20717;-63
2021/07/27 04:36:54;;;;;;;7.30;4.33;;;;;;;;;;5085466;28;20207;-63
2021/07/27 04:39:22;;;;;;;4.37;3.93;;;;;;;;;;5099269;28;20240;-63
2021/07/27 04:41:50;;;;;;;6.03;5.07;;;;;;;;;;5096274;28;20237;-62
2021/07/27 04:44:19;;;;;;;4.90;4.00;;;;;;;;;;5098261;28;20205;-62
2021/07/27 04:46:47;;;;;;;4.77;3.57;;;;;;;;;;5092748;28;20211;-63
2021/07/27 04:49:15;;;;;;;10.43;4.53;;;;;;;;;;5098784;28;20225;-63
2021/07/27 04:51:43;;;;;;;5.93;4.33;;;;;;;;;;5084688;28;20232;-63
2021/07/27 04:54:15;;;;;;;5.50;4.43;;;;;;;;;;5097410;28;20266;-62
2021/07/27 04:56:43;;;;;;;7.43;4.67;;;;;;;;;;5099006;28;20665;-63
2021/07/27 04:59:11;;;;;;;6.13;4.37;;;;;;;;;;5096703;28;20744;-62
2021/07/27 05:01:41;;;;;;;7.00;4.60;;;;;;;;;;5096981;28;20218;-63
2021/07/27 05:04:09;;;;;;;5.90;4.23;;;;;;;;;;5091141;28;20201;-63
2021/07/27 05:06:38;;;;;;;4.50;4.10;;;;;;;;;;5085016;28;20206;-62
2021/07/27 05:09:06;;;;;;;9.53;4.10;;;;;;;;;;5085283;28;20726;-64
2021/07/27 05:11:34;;;;;;;8.27;4.00;;;;;;;;;;5085271;28;20236;-64
2021/07/27 05:14:02;;;;;;;7.40;4.83;;;;;;;;;;5098551;28;20263;-63
2021/07/27 05:16:30;;;;;;;4.83;3.63;;;;;;;;;;5090711;28;20608;-64
2021/07/27 05:19:17;;;;;;;6.47;4.20;;;;;;;;;;5098394;28;20263;-64
2021/07/27 05:21:48;;;;;;;7.87;5.60;;;;;;;;;;5095472;28;20220;-64
2021/07/27 05:24:16;;;;;;;5.23;3.90;;;;;;;;;;5096599;28;20212;-64
2021/07/27 05:26:44;;;;;;;6.00;5.03;;;;;;;;;;5096427;28;20212;-64
2021/07/27 05:29:12;;;;;;;7.67;5.40;;;;;;;;;;5096856;28;20228;-64
2021/07/27 05:31:40;;;;;;;5.70;4.30;;;;;;;;;;5094447;28;20221;-64
2021/07/27 05:34:09;;;;;;;6.07;4.43;;;;;;;;;;5095153;28;20210;-64
2021/07/27 05:36:37;;;;;;;6.67;4.37;;;;;;;;;;5097487;28;20288;-63
2021/07/27 05:39:06;;;;;;;8.53;4.90;;;;;;;;;;5094315;28;20281;-63
2021/07/27 05:41:34;;;;;;;4.97;4.23;;;;;;;;;;5092009;28;20233;-63
2021/07/27 05:44:02;;;;;;;7.70;4.60;;;;;;;;;;5094269;28;20197;-63
2021/07/27 05:46:30;;;;;;;5.60;4.00;;;;;;;;;;5090704;28;20198;-63
2021/07/27 05:48:58;;;;;;;6.03;4.13;;;;;;;;;;5096463;28;20224;-63
2021/07/27 05:51:27;;;;;;;5.73;4.27;;;;;;;;;;5094699;28;20226;-63
2021/07/27 05:53:55;;;;;;;6.30;4.43;;;;;;;;;;5088381;28;20231;-63
2021/07/27 05:56:24;;;;;;;7.07;4.80;;;;;;;;;;5096655;28;20211;-63
2021/07/27 05:58:52;;;;;;;7.97;5.07;;;;;;;;;;5094907;28;20675;-63
2021/07/27 06:01:20;;;;;;;6.00;4.53;;;;;;;;;;5080754;28;20580;-64
2021/07/27 06:03:48;;;;;;;7.23;5.20;;;;;;;;;;5095613;28;20198;-64
2021/07/27 06:06:16;;;;;;;4.67;4.03;;;;;;;;;;5096334;28;20197;-63
2021/07/27 06:08:44;;;;;;;7.93;4.87;;;;;;;;;;5083365;28;20206;-64
2021/07/27 06:11:13;;;;;;;7.13;5.23;;;;;;;;;;5097103;28;20308;-64
2021/07/27 06:13:42;;;;;;;7.20;4.60;;;;;;;;;;5095850;28;20281;-64
2021/07/27 06:16:10;;;;;;;14.57;5.70;;;;;;;;;;5094687;28;20194;-64
2021/07/27 06:18:38;;;;;;;6.53;4.53;;;;;;;;;;5097057;28;20209;-64
2021/07/27 06:21:06;;;;;;;7.17;4.90;;;;;;;;;;5094748;28;20563;-63
2021/07/27 06:23:34;;;;;;;7.40;4.83;;;;;;;;;;5095830;28;20197;-64
2021/07/27 06:26:04;;;;;;;5.90;4.97;;;;;;;;;;5097455;28;20209;-63
2021/07/27 06:28:32;;;;;;;7.60;4.40;;;;;;;;;;5092443;28;20199;-63
2021/07/27 06:31:03;;;;;;;7.60;5.13;;;;;;;;;;5086613;28;20233;-64
2021/07/27 06:33:31;;;;;;;8.50;4.60;;;;;;;;;;5087999;28;20649;-63
2021/07/27 06:35:59;;;;;;;5.07;4.13;;;;;;;;;;5097218;28;20215;-64
2021/07/27 06:38:27;;;;;;;8.03;4.80;;;;;;;;;;5082600;28;20609;-64
2021/07/27 06:40:55;;;;;;;6.00;4.27;;;;;;;;;;5096814;28;20226;-64
2021/07/27 06:43:23;;;;;;;8.67;4.90;;;;;;;;;;5082870;28;20591;-64
2021/07/27 06:45:54;;;;;;;5.53;4.70;;;;;;;;;;5099646;28;20198;-63
2021/07/27 06:48:23;;;;;;;9.03;4.93;;;;;;;;;;5104828;28;20198;-63
2021/07/27 06:50:51;;;;;;;7.60;4.93;;;;;;;;;;5103666;28;20686;-64
2021/07/27 06:53:20;;;;;;;7.63;4.30;;;;;;;;;;5105661;28;20278;-63
2021/07/27 06:55:48;;;;;;;7.27;4.60;;;;;;;;;;5105280;28;20698;-63
2021/07/27 06:58:15;;;;;;;11.40;4.80;;;;;;;;;;5106059;28;20613;-62
2021/07/27 07:00:43;;;;;;;9.00;5.10;;;;;;;;;;5098310;28;20544;-62
2021/07/27 07:03:12;;;;;;;7.57;4.43;;;;;;;;;;5088657;28;20689;-62
2021/07/27 07:05:42;;;;;;;7.53;4.93;;;;;;;;;;5107618;28;20202;-63
2021/07/27 07:08:10;;;;;;;6.20;4.17;;;;;;;;;;5092874;28;20202;-62
2021/07/27 07:10:38;;;;;;;5.80;3.93;;;;;;;;;;5099099;28;20218;-62
2021/07/27 07:13:06;;;;;;;9.67;4.43;;;;;;;;;;5100548;28;20241;-62
2021/07/27 07:15:34;;;;;;;4.60;4.07;;;;;;;;;;5099353;28;20282;-63
2021/07/27 07:18:02;;;;;;;6.20;4.03;;;;;;;;;;5089280;28;20352;-63
2021/07/27 07:20:30;;;;;;;5.23;4.60;;;;;;;;;;5100613;28;20258;-62
2021/07/27 07:23:00;;;;;;;5.90;4.40;;;;;;;;;;5098548;28;20235;-63
2021/07/27 07:25:28;;;;;;;7.90;4.47;;;;;;;;;;5088512;28;20210;-62
2021/07/27 07:27:56;;;;;;;4.60;3.60;;;;;;;;;;5099009;28;20293;-63
2021/07/27 07:30:25;;;;;;;6.00;4.00;;;;;;;;;;5098873;28;20222;-62
2021/07/27 07:32:53;;;;;;;5.93;3.83;;;;;;;;;;5090788;28;20225;-63
2021/07/27 07:35:23;;;;;;;5.87;3.70;;;;;;;;;;5089574;28;20612;-64
2021/07/27 07:37:51;;;;;;;4.60;3.90;;;;;;;;;;5097241;28;20658;-64
2021/07/27 07:40:20;;;;;;;6.33;3.90;;;;;;;;;;5101774;28;20214;-65
2021/07/27 07:42:48;;;;;;;6.93;4.00;;;;;;;;;;5099667;28;20225;-67
2021/07/27 07:45:16;;;;;;;9.07;4.60;;;;;;;;;;5099615;28;20208;-68
2021/07/27 07:47:44;;;;;;;5.20;4.20;;;;;;;;;;5099894;28;20207;-72
2021/07/27 07:50:12;;;;;;;6.20;4.10;;;;;;;;;;5100013;28;20232;-70
2021/07/27 07:52:40;;;;;;;8.30;4.70;;;;;;;;;;5100529;28;20225;-71
2021/07/27 07:55:09;;;;;;;7.40;4.07;;;;;;;;;;5100310;28;20209;-68
2021/07/27 07:57:39;;;;;;;4.37;3.80;;;;;;;;;;5097436;28;20201;-66
2021/07/27 08:00:07;;;;;;;4.83;3.70;;;;;;;;;;5088961;28;20209;-67
2021/07/27 08:02:35;;;;;;;4.83;3.67;;;;;;;;;;5104919;28;20230;-68
2021/07/27 08:05:03;;;;;;;4.33;3.70;;;;;;;;;;5116474;28;20200;-69
2021/07/27 08:07:33;;;;;;;4.77;3.30;;;;;;;;;;5119494;28;20325;-65
2021/07/27 08:10:02;;;;;;;11.27;3.60;;;;;;;;;;5101685;28;20230;-65
2021/07/27 08:12:30;;;;;;;4.83;4.03;;;;;;;;;;5099455;28;20239;-64
2021/07/27 08:15:00;;;;;;;6.00;3.87;;;;;;;;;;5099036;28;20212;-65
2021/07/27 08:17:28;;;;;;;6.77;3.83;;;;;;;;;;5092790;28;20285;-65
2021/07/27 08:19:57;;;;;;;4.10;3.70;;;;;;;;;;5094387;28;20211;-64
2021/07/27 08:22:25;;;;;;;5.60;3.87;;;;;;;;;;5099033;28;20629;-66
2021/07/27 08:24:53;;;;;;;5.87;3.57;;;;;;;;;;5099181;28;20216;-65
2021/07/27 08:27:21;;;;;;;5.60;4.07;;;;;;;;;;5088308;28;20244;-64
2021/07/27 08:29:50;;;;;;;3.80;3.40;;;;;;;;;;5098427;28;20668;-65
2021/07/27 08:32:20;;;;;;;5.23;3.67;;;;;;;;;;5098131;28;20229;-64
2021/07/27 08:34:48;;;;;;;4.83;3.97;;;;;;;;;;5093797;28;20212;-65
2021/07/27 08:37:17;;;;;;;4.27;3.73;;;;;;;;;;5098672;28;20206;-65
2021/07/27 08:39:45;;;;;;;4.97;4.00;;;;;;;;;;5098372;28;20259;-64
2021/07/27 08:42:13;;;;;;;7.20;3.73;;;;;;;;;;5097841;28;20789;-65
2021/07/27 08:44:44;;;;;;;4.47;3.10;;;;;;;;;;5097961;28;20232;-64
2021/07/27 08:47:12;;;;;;;4.10;3.60;;;;;;;;;;5097894;28;20208;-64
2021/07/27 08:49:42;;;;;;;5.37;3.67;;;;;;;;;;5097128;28;20219;-65
2021/07/27 08:52:10;;;;;;;8.07;3.87;;;;;;;;;;5097248;28;20243;-68
2021/07/27 08:54:43;;;;;;;8.63;3.90;;;;;;;;;;5097932;28;20208;-63
2021/07/27 08:57:13;;;;;;;4.73;4.10;;;;;;;;;;5098554;28;20224;-71
2021/07/27 08:59:41;;;;;;;5.77;3.80;;;;;;;;;;5098316;28;20211;-64
2021/07/27 09:02:09;;;;;;;6.97;4.17;;;;;;;;;;5098077;28;20224;-64
2021/07/27 09:04:38;;;;;;;5.37;3.67;;;;;;;;;;5097607;28;20682;-64
2021/07/27 09:07:07;;;;;;;5.60;3.90;;;;;;;;;;5079624;28;20731;-68
2021/07/27 09:09:36;;;;;;;5.37;3.87;;;;;;;;;;5088312;28;20285;-69
2021/07/27 09:12:06;;;;;;;4.67;4.13;;;;;;;;;;5094034;28;20756;-69
2021/07/27 09:14:34;;;;;;;6.57;3.60;;;;;;;;;;5095003;28;20199;-69
2021/07/27 09:17:02;;;;;;;4.23;3.83;;;;;;;;;;5095020;28;20200;-69
2021/07/27 09:19:38;;;;;;;4.63;3.33;;;;;;;;;;5089299;28;20308;-69
2021/07/27 09:22:07;;;;;;;6.77;4.13;;;;;;;;;;5081506;28;20219;-69
2021/07/27 09:24:37;;;;;;;3.93;3.60;;;;;;;;;;5076797;28;20199;-69
2021/07/27 09:27:06;;;;;;;4.13;3.50;;;;;;;;;;5092553;28;20207;-69
2021/07/27 09:29:42;;;;;;;5.03;3.73;;;;;;;;;;5090873;28;20261;-69
2021/07/27 09:32:16;;;;;;;4.80;3.30;;;;;;;;;;5102329;28;20231;-69
2021/07/27 09:34:44;;;;;;;4.60;3.63;;;;;;;;;;5079200;28;20204;-68
2021/07/27 09:37:14;;;;;;;4.37;3.33;;;;;;;;;;5093935;28;20196;-70
2021/07/27 09:39:42;;;;;;;5.93;4.53;;;;;;;;;;5093817;28;20282;-68
2021/07/27 09:42:11;;;;;;;6.93;4.70;;;;;;;;;;5095632;28;20240;-69
2021/07/27 09:44:40;;;;;;;5.90;3.60;;;;;;;;;;5100500;28;20197;-66
2021/07/27 09:47:08;;;;;;;4.40;3.60;;;;;;;;;;5092483;28;20584;-66
2021/07/27 09:49:37;;;;;;;5.20;3.77;;;;;;;;;;5102083;28;20281;-66
2021/07/27 09:52:06;;;;;;;4.27;3.73;;;;;;;;;;5101781;28;20226;-66
2021/07/27 09:54:36;;;;;;;5.40;3.60;;;;;;;;;;5084573;28;20209;-68
2021/07/27 09:57:04;;;;;;;3.80;3.50;;;;;;;;;;5097712;28;20843;-66
2021/07/27 09:59:32;;;;;;;4.23;3.20;;;;;;;;;;5087226;28;20215;-67
2021/07/27 10:02:03;;;;;;;4.67;3.13;;;;;;;;;;5091613;28;20311;-67
2021/07/27 10:04:34;;;;;;;3.20;2.90;;;;;;;;;;5096480;28;20215;-67
2021/07/27 10:07:03;;;;;;;4.63;3.27;;;;;;;;;;5096916;28;20237;-67
2021/07/27 10:09:32;;;;;;;3.63;3.07;;;;;;;;;;5078223;28;20292;-67
2021/07/27 10:12:08;;;;;;;3.17;2.47;;;;;;;;;;5097141;28;20303;-67
2021/07/27 10:14:40;;;;;;;3.57;3.23;;;;;;;;;;5093452;28;20208;-67
2021/07/27 10:17:08;;;;;;;4.93;3.70;;;;;;;;;;5077644;28;21669;-67
2021/07/27 10:19:40;;;;;;;5.03;3.47;;;;;;;;;;5079709;28;20263;-67
2021/07/27 10:22:09;;;;;;;3.37;2.63;;;;;;;;;;5089240;28;20242;-67
2021/07/27 10:24:37;;;;;;;3.50;2.80;;;;;;;;;;5084538;28;20202;-67
2021/07/27 10:27:11;;;;;;;4.63;3.50;;;;;;;;;;5097207;28;20342;-67
2021/07/27 10:29:39;;;;;;;4.13;2.83;;;;;;;;;;5084036;28;20205;-67
2021/07/27 10:32:14;;;;;;;5.07;3.87;;;;;;;;;;5100956;28;20233;-67
2021/07/27 10:34:43;;;;;;;4.10;3.20;;;;;;;;;;5089091;28;20291;-67
2021/07/27 10:37:11;;;;;;;5.70;3.50;;;;;;;;;;5100359;28;20210;-67
2021/07/27 10:39:47;;;;;;;5.50;3.27;;;;;;;;;;5087548;28;20583;-67
2021/07/27 10:42:17;;;;;;;4.77;3.37;;;;;;;;;;5085269;28;20269;-67
2021/07/27 10:44:47;;;;;;;3.30;3.00;;;;;;;;;;5088454;28;20205;-67
2021/07/27 10:47:19;;;;;;;6.40;3.63;;;;;;;;;;5084382;28;20654;-67
2021/07/27 10:49:48;;;;;;;3.83;3.43;;;;;;;;;;5084433;28;20293;-67
2021/07/27 10:52:16;;;;;;;4.03;3.63;;;;;;;;;;5100662;28;20239;-67
2021/07/27 10:54:51;;;;;;;4.83;3.70;;;;;;;;;;5087159;28;20209;-67
2021/07/27 10:57:25;;;;;;;4.27;3.30;;;;;;;;;;5095389;28;20704;-67
2021/07/27 10:59:53;;;;;;;9.37;3.97;;;;;;;;;;5081934;28;20231;-67
2021/07/27 11:02:23;;;;;;;5.07;3.20;;;;;;;;;;5100527;28;20264;-67
2021/07/27 11:04:51;;;;;;;4.40;3.10;;;;;;;;;;5093586;28;20207;-67
2021/07/27 11:07:20;;;;;;;3.73;3.30;;;;;;;;;;5092517;28;20276;-67
2021/07/27 11:09:49;;;;;;;5.33;3.70;;;;;;;;;;5091180;28;20254;-67
2021/07/27 11:12:31;;;;;;;4.17;3.33;;;;;;;;;;5089345;28;20320;-67
2021/07/27 11:15:06;;;;;;;4.50;3.60;;;;;;;;;;5087361;28;20647;-67
2021/07/27 11:17:34;;;;;;;4.13;3.10;;;;;;;;;;5100725;28;20247;-67
2021/07/27 11:20:03;;;;;;;4.23;3.30;;;;;;;;;;5087133;28;20203;-67
2021/07/27 11:22:31;;;;;;;6.17;4.33;;;;;;;;;;5083456;28;20595;-67
2021/07/27 11:24:59;;;;;;;4.90;3.43;;;;;;;;;;5100787;28;20208;-67
2021/07/27 11:27:31;;;;;;;8.40;4.27;;;;;;;;;;5083505;28;20218;-67
2021/07/27 11:30:00;;;;;;;4.80;3.77;;;;;;;;;;5096490;28;20266;-67
2021/07/27 11:32:37;;;;;;;5.50;3.83;;;;;;;;;;5082337;28;20263;-67
2021/07/27 11:35:05;;;;;;;4.53;3.30;;;;;;;;;;5083152;28;20252;-67
2021/07/27 11:37:33;;;;;;;6.63;4.33;;;;;;;;;;5090470;28;20266;-67
2021/07/27 11:40:01;;;;;;;9.30;3.90;;;;;;;;;;5079531;28;20203;-67
2021/07/27 11:42:32;;;;;;;6.13;4.00;;;;;;;;;;5085777;28;20241;-67
2021/07/27 11:45:01;;;;;;;4.87;3.70;;;;;;;;;;5090341;28;20210;-67
2021/07/27 11:47:40;;;;;;;6.77;4.00;;;;;;;;;;5098180;28;20284;-70
2021/07/27 11:50:10;;;;;;;6.60;3.87;;;;;;;;;;5092574;28;20297;-69
2021/07/27 11:52:38;;;;;;;4.67;3.80;;;;;;;;;;5100339;28;20229;-69
2021/07/27 11:55:06;;;;;;;4.97;4.23;;;;;;;;;;5085570;28;20561;-74
2021/07/27 11:57:36;;;;;;;4.57;3.83;;;;;;;;;;5093184;28;20233;-70
2021/07/27 12:00:11;;;;;;;4.57;3.60;;;;;;;;;;5097578;28;20211;-70
2021/07/27 12:02:39;;;;;;;5.47;3.60;;;;;;;;;;5099842;28;20760;-71
2021/07/27 12:05:07;;;;;;;4.43;4.03;;;;;;;;;;5105803;28;20246;-70
2021/07/27 12:07:35;;;;;;;5.40;3.60;;;;;;;;;;5120389;28;20201;-71
2021/07/27 12:10:03;;;;;;;8.00;3.70;;;;;;;;;;5119874;28;20206;-70
2021/07/27 12:12:32;;;;;;;5.90;3.90;;;;;;;;;;5110541;28;20234;-69
2021/07/27 12:15:01;;;;;;;4.87;3.97;;;;;;;;;;5096933;28;20220;-68
2021/07/27 12:17:29;;;;;;;5.47;3.83;;;;;;;;;;5093471;28;20292;-70
2021/07/27 12:19:57;;;;;;;4.23;3.83;;;;;;;;;;5099516;28;20212;-68
2021/07/27 12:22:25;;;;;;;6.37;3.73;;;;;;;;;;5099483;28;20228;-70
2021/07/27 12:24:53;;;;;;;7.67;4.53;;;;;;;;;;5099628;28;20206;-67
2021/07/27 12:27:21;;;;;;;4.70;3.83;;;;;;;;;;5095070;28;20295;-68
2021/07/27 12:29:49;;;;;;;6.93;4.13;;;;;;;;;;5098801;28;20999;-69
2021/07/27 12:32:18;;;;;;;7.83;4.33;;;;;;;;;;5096774;28;20229;-69
2021/07/27 12:35:07;;;;;;;5.30;3.57;;;;;;;;;;5098994;28;20213;-68
2021/07/27 12:37:35;;;;;;;6.47;4.30;;;;;;;;;;5099564;28;20208;-72
2021/07/27 12:40:04;;;;;;;6.37;4.00;;;;;;;;;;5099656;28;20289;-71
2021/07/27 12:42:31;;;;;;;6.47;4.27;;;;;;;;;;5086092;28;20251;-69
2021/07/27 12:44:59;;;;;;;7.27;4.30;;;;;;;;;;5099010;28;20209;-69
2021/07/27 12:47:29;;;;;;;9.43;5.00;;;;;;;;;;5098349;28;20294;-70
2021/07/27 12:49:58;;;;;;;7.90;4.67;;;;;;;;;;5091764;28;20199;-69
2021/07/27 12:52:26;;;;;;;4.77;4.17;;;;;;;;;;5098698;28;20274;-69
2021/07/27 12:54:54;;;;;;;5.73;4.20;;;;;;;;;;5100725;28;20212;-69
2021/07/27 12:57:22;;;;;;;6.63;4.10;;;;;;;;;;5111297;28;20215;-68
2021/07/27 12:59:50;;;;;;;4.40;4.00;;;;;;;;;;5107137;28;20205;-68
2021/07/27 13:02:22;;;;;;;7.17;4.27;;;;;;;;;;5116836;28;20661;-70
2021/07/27 13:04:52;;;;;;;5.18;3.90;;;;;;;;;;5104613;28;20290;-69
2021/07/27 13:07:20;;;;;;;5.73;3.83;;;;;;;;;;5098422;28;20231;-70
2021/07/27 13:09:48;;;;;;;8.05;4.68;;;;;;;;;;5098912;28;20202;-69
2021/07/27 13:12:16;;;;;;;6.33;4.70;;;;;;;;;;5098661;28;20222;-69
2021/07/27 13:14:44;;;;;;;5.30;4.10;;;;;;;;;;5098528;28;20312;-70
2021/07/27 13:17:12;;;;;;;5.40;4.80;;;;;;;;;;5119053;28;20291;-69
2021/07/27 13:19:40;;;;;;;5.93;4.17;;;;;;;;;;5089751;28;20206;-69
2021/07/27 13:22:10;;;;;;;5.93;4.40;;;;;;;;;;5118950;28;20231;-69
2021/07/27 13:24:38;;;;;;;5.30;4.20;;;;;;;;;;5110166;28;20219;-71
2021/07/27 13:27:07;;;;;;;5.27;4.10;;;;;;;;;;5100506;28;20219;-69
2021/07/27 13:29:37;;;;;;;5.60;4.40;;;;;;;;;;5098329;28;20201;-70
2021/07/27 13:32:05;;;;;;;5.87;4.37;;;;;;;;;;5098320;28;20234;-69
2021/07/27 13:34:34;;;;;;;7.77;4.17;;;;;;;;;;5104263;28;20225;-63
2021/07/27 13:40:25;;;;;;;8.67;4.10;;;;;;;;;;5096957;28;20190;-67
2021/07/27 13:42:54;;;;;;;7.47;4.17;;;;;;;;;;5097663;28;20309;-66
2021/07/27 13:45:22;;;;;;;5.27;4.20;;;;;;;;;;5097675;28;20287;-66
2021/07/27 13:47:50;;;;;;;6.37;3.73;;;;;;;;;;5097639;28;20201;-67
2021/07/27 13:50:18;;;;;;;6.57;4.30;;;;;;;;;;5097413;28;20201;-66
2021/07/27 13:52:46;;;;;;;8.00;4.37;;;;;;;;;;5097276;28;20715;-67
2021/07/27 13:55:14;;;;;;;6.97;4.53;;;;;;;;;;5098838;28;20281;-67
2021/07/27 13:57:44;;;;;;;5.03;4.17;;;;;;;;;;5099461;28;20205;-67
2021/07/27 14:00:13;;;;;;;5.53;3.93;;;;;;;;;;5097059;28;20296;-67
2021/07/27 14:02:41;;;;;;;6.37;3.83;;;;;;;;;;5101360;28;20303;-68
2021/07/27 14:05:10;;;;;;;5.20;3.87;;;;;;;;;;5097344;28;20283;-65
2021/07/27 14:07:38;;;;;;;5.90;3.80;;;;;;;;;;5098739;28;20265;-64
2021/07/27 14:10:07;;;;;;;6.77;4.17;;;;;;;;;;5098168;28;20199;-64
2021/07/27 14:12:35;;;;;;;5.30;4.22;;;;;;;;;;5102707;28;20258;-64
2021/07/27 14:15:05;;;;;;;11.07;5.75;;;;;;;;;;5107239;28;20286;-64
2021/07/27 14:17:34;;;;;;;19.17;7.13;;;;;;;;;;5117400;28;20290;-64
2021/07/27 14:20:03;;;;;;;18.70;6.88;;;;;;;;;;5117644;28;20204;-65
2021/07/27 14:22:31;;;;;;;6.93;4.72;;;;;;;;;;5107321;28;20213;-68
2021/07/27 14:24:59;;;;;;;8.13;4.75;;;;;;;;;;5103643;28;20278;-64
2021/07/27 14:27:28;;;;;;;5.00;4.47;;;;;;;;;;5107474;28;20199;-64
2021/07/27 14:29:56;;;;;;;8.70;4.60;;;;;;;;;;5103861;28;20709;-65
2021/07/27 14:32:26;;;;;;;5.30;4.80;;;;;;;;;;5106385;28;20348;-65
2021/07/27 14:34:54;;;;;;;6.07;3.70;;;;;;;;;;5103380;28;20247;-64
2021/07/27 14:37:22;;;;;;;5.82;4.40;;;;;;;;;;5105490;28;20240;-63
2021/07/27 14:39:50;;;;;;;6.10;4.17;;;;;;;;;;5102796;28;20565;-64
2021/07/27 14:42:18;;;;;;;448.73;298.87;;;;;;;;;;5101860;28;20239;-66
2021/07/27 14:44:46;;;;;;;43.57;28.70;;;;;;;;;;5097319;28;20574;-66
2021/07/27 14:47:14;;;;;;;14.67;9.17;;;;;;;;;;5097628;28;20273;-69
2021/07/27 14:49:43;;;;;;;5.67;4.47;;;;;;;;;;5097839;28;20210;-66
2021/07/27 14:52:11;;;;;;;5.07;4.40;;;;;;;;;;5097232;28;20765;-69
2021/07/27 14:54:39;;;;;;;8.23;3.83;;;;;;;;;;5097566;28;20237;-65
2021/07/27 14:57:07;;;;;;;4.70;4.20;;;;;;;;;;5103804;28;20201;-70
2021/07/27 14:59:35;;;;;;;5.80;4.00;;;;;;;;;;5105855;28;20207;-67
2021/07/27 15:02:03;;;;;;;8.33;4.37;;;;;;;;;;5102602;28;20221;-66
2021/07/27 15:04:31;;;;;;;5.03;4.33;;;;;;;;;;5104837;28;20261;-66
2021/07/27 15:07:01;;;;;;;6.50;5.30;;;;;;;;;;5117706;28;20611;-66
2021/07/27 15:09:29;;;;;;;7.40;4.80;;;;;;;;;;5099036;28;20296;-67
2021/07/27 15:11:57;;;;;;;10.33;4.27;;;;;;;;;;5097164;28;20235;-68
2021/07/27 15:14:25;;;;;;;7.50;4.33;;;;;;;;;;5097050;28;20230;-66